sensor_id;sensor_type;location;lat;lon;timestamp;temperature;humidity
66144;SHT31;52947;50.842;6.084;2023-04-06T00:02:10;5.40;65.91
66144;SHT31;52947;50.842;6.084;2023-04-06T00:04:39;4.57;66.64
66144;SHT31;52947;50.842;6.084;2023-04-06T00:07:08;3.94;67.46
66144;SHT31;52947;50.842;6.084;2023-04-06T00:09:36;3.46;68.29
66144;SHT31;52947;50.842;6.084;2023-04-06T00:12:04;3.22;69.10
66144;SHT31;52947;50.842;6.084;2023-04-06T00:14:32;2.90;69.38
66144;SHT31;52947;50.842;6.084;2023-04-06T00:17:00;2.71;70.59
66144;SHT31;52947;50.842;6.084;2023-04-06T00:19:28;2.49;70.96
66144;SHT31;52947;50.842;6.084;2023-04-06T00:21:56;2.29;71.88
66144;SHT31;52947;50.842;6.084;2023-04-06T00:24:26;2.09;72.38
66144;SHT31;52947;50.842;6.084;2023-04-06T00:26:54;1.89;72.75
66144;SHT31;52947;50.842;6.084;2023-04-06T00:29:22;1.65;72.80
66144;SHT31;52947;50.842;6.084;2023-04-06T00:31:50;1.48;74.41
66144;SHT31;52947;50.842;6.084;2023-04-06T00:34:19;1.39;75.60
66144;SHT31;52947;50.842;6.084;2023-04-06T00:36:47;1.20;76.18
66144;SHT31;52947;50.842;6.084;2023-04-06T00:39:15;1.07;76.49
66144;SHT31;52947;50.842;6.084;2023-04-06T00:41:51;0.93;76.61
66144;SHT31;52947;50.842;6.084;2023-04-06T00:44:19;0.80;77.33
66144;SHT31;52947;50.842;6.084;2023-04-06T00:46:47;0.79;77.97
66144;SHT31;52947;50.842;6.084;2023-04-06T00:49:16;0.80;78.34
66144;SHT31;52947;50.842;6.084;2023-04-06T00:51:44;0.82;78.37
66144;SHT31;52947;50.842;6.084;2023-04-06T00:54:14;0.79;78.01
66144;SHT31;52947;50.842;6.084;2023-04-06T00:56:42;0.85;77.71
66144;SHT31;52947;50.842;6.084;2023-04-06T00:59:12;0.76;77.29
66144;SHT31;52947;50.842;6.084;2023-04-06T01:01:41;0.68;77.47
66144;SHT31;52947;50.842;6.084;2023-04-06T01:04:23;0.59;78.17
66144;SHT31;52947;50.842;6.084;2023-04-06T01:06:53;0.54;78.96
66144;SHT31;52947;50.842;6.084;2023-04-06T01:09:27;0.54;79.74
66144;SHT31;52947;50.842;6.084;2023-04-06T01:11:57;0.47;79.86
66144;SHT31;52947;50.842;6.084;2023-04-06T01:14:31;0.40;79.94
66144;SHT31;52947;50.842;6.084;2023-04-06T01:17:00;0.45;80.25
66144;SHT31;52947;50.842;6.084;2023-04-06T01:19:31;0.61;78.90
66144;SHT31;52947;50.842;6.084;2023-04-06T01:21:59;0.88;77.86
66144;SHT31;52947;50.842;6.084;2023-04-06T01:24:31;0.86;77.24
66144;SHT31;52947;50.842;6.084;2023-04-06T01:27:34;0.73;77.13
66144;SHT31;52947;50.842;6.084;2023-04-06T01:30:12;0.68;77.49
66144;SHT31;52947;50.842;6.084;2023-04-06T01:32:58;0.65;77.62
66144;SHT31;52947;50.842;6.084;2023-04-06T01:35:49;0.82;78.05
66144;SHT31;52947;50.842;6.084;2023-04-06T01:38:19;1.00;77.17
66144;SHT31;52947;50.842;6.084;2023-04-06T01:40:49;1.04;76.51
66144;SHT31;52947;50.842;6.084;2023-04-06T01:43:21;0.93;76.28
66144;SHT31;52947;50.842;6.084;2023-04-06T01:46:00;0.88;76.56
66144;SHT31;52947;50.842;6.084;2023-04-06T01:48:33;0.83;76.81
66144;SHT31;52947;50.842;6.084;2023-04-06T01:51:09;0.82;77.20
66144;SHT31;52947;50.842;6.084;2023-04-06T01:53:45;0.93;77.33
66144;SHT31;52947;50.842;6.084;2023-04-06T01:56:17;1.16;76.91
66144;SHT31;52947;50.842;6.084;2023-04-06T01:58:58;1.17;76.25
66144;SHT31;52947;50.842;6.084;2023-04-06T02:01:34;1.13;75.89
66144;SHT31;52947;50.842;6.084;2023-04-06T02:04:02;0.95;76.11
66144;SHT31;52947;50.842;6.084;2023-04-06T02:06:30;0.72;76.66
66144;SHT31;52947;50.842;6.084;2023-04-06T02:09:00;0.55;77.21
66144;SHT31;52947;50.842;6.084;2023-04-06T02:11:29;0.47;77.55
66144;SHT31;52947;50.842;6.084;2023-04-06T02:13:57;0.40;78.47
66144;SHT31;52947;50.842;6.084;2023-04-06T02:16:30;0.37;78.78
66144;SHT31;52947;50.842;6.084;2023-04-06T02:18:58;0.42;78.79
66144;SHT31;52947;50.842;6.084;2023-04-06T02:21:26;0.51;78.55
66144;SHT31;52947;50.842;6.084;2023-04-06T02:23:54;0.55;78.33
66144;SHT31;52947;50.842;6.084;2023-04-06T02:26:23;0.55;78.23
66144;SHT31;52947;50.842;6.084;2023-04-06T02:28:53;0.55;78.28
66144;SHT31;52947;50.842;6.084;2023-04-06T02:31:21;0.57;78.46
66144;SHT31;52947;50.842;6.084;2023-04-06T02:33:51;0.79;78.46
66144;SHT31;52947;50.842;6.084;2023-04-06T02:36:19;0.82;78.03
66144;SHT31;52947;50.842;6.084;2023-04-06T02:38:47;0.83;77.47
66144;SHT31;52947;50.842;6.084;2023-04-06T02:41:16;0.78;77.50
66144;SHT31;52947;50.842;6.084;2023-04-06T02:43:44;0.75;77.94
66144;SHT31;52947;50.842;6.084;2023-04-06T02:46:36;0.80;77.64
66144;SHT31;52947;50.842;6.084;2023-04-06T02:49:04;0.83;77.66
66144;SHT31;52947;50.842;6.084;2023-04-06T02:51:34;0.80;77.63
66144;SHT31;52947;50.842;6.084;2023-04-06T02:54:17;0.79;77.33
66144;SHT31;52947;50.842;6.084;2023-04-06T02:56:46;0.79;77.72
66144;SHT31;52947;50.842;6.084;2023-04-06T02:59:14;0.70;78.23
66144;SHT31;52947;50.842;6.084;2023-04-06T03:01:51;0.65;78.41
66144;SHT31;52947;50.842;6.084;2023-04-06T03:04:19;0.69;78.70
66144;SHT31;52947;50.842;6.084;2023-04-06T03:06:50;0.59;78.38
66144;SHT31;52947;50.842;6.084;2023-04-06T03:09:29;0.51;78.37
66144;SHT31;52947;50.842;6.084;2023-04-06T03:11:57;0.40;78.57
66144;SHT31;52947;50.842;6.084;2023-04-06T03:14:28;0.34;78.74
66144;SHT31;52947;50.842;6.084;2023-04-06T03:16:57;0.29;78.83
66144;SHT31;52947;50.842;6.084;2023-04-06T03:19:25;0.37;79.27
66144;SHT31;52947;50.842;6.084;2023-04-06T03:21:58;0.61;79.14
66144;SHT31;52947;50.842;6.084;2023-04-06T03:24:26;0.69;78.67
66144;SHT31;52947;50.842;6.084;2023-04-06T03:26:54;0.78;78.61
66144;SHT31;52947;50.842;6.084;2023-04-06T03:29:22;0.79;77.81
66144;SHT31;52947;50.842;6.084;2023-04-06T03:31:51;0.79;78.01
66144;SHT31;52947;50.842;6.084;2023-04-06T03:34:31;0.82;78.35
66144;SHT31;52947;50.842;6.084;2023-04-06T03:36:59;1.04;78.14
66144;SHT31;52947;50.842;6.084;2023-04-06T03:39:41;1.10;77.46
66144;SHT31;52947;50.842;6.084;2023-04-06T03:42:14;1.22;77.25
66144;SHT31;52947;50.842;6.084;2023-04-06T03:44:49;1.30;76.78
66144;SHT31;52947;50.842;6.084;2023-04-06T03:47:17;1.33;76.56
66144;SHT31;52947;50.842;6.084;2023-04-06T03:49:47;1.41;76.47
66144;SHT31;52947;50.842;6.084;2023-04-06T03:52:15;1.44;76.40
66144;SHT31;52947;50.842;6.084;2023-04-06T03:54:43;1.48;76.03
66144;SHT31;52947;50.842;6.084;2023-04-06T03:57:11;1.51;76.06
66144;SHT31;52947;50.842;6.084;2023-04-06T03:59:39;1.71;75.74
66144;SHT31;52947;50.842;6.084;2023-04-06T04:02:07;1.79;75.13
66144;SHT31;52947;50.842;6.084;2023-04-06T04:04:35;2.06;74.65
66144;SHT31;52947;50.842;6.084;2023-04-06T04:07:04;2.12;74.23
66144;SHT31;52947;50.842;6.084;2023-04-06T04:09:32;2.22;74.05
66144;SHT31;52947;50.842;6.084;2023-04-06T04:12:00;2.32;73.74
66144;SHT31;52947;50.842;6.084;2023-04-06T04:14:30;2.39;73.00
66144;SHT31;52947;50.842;6.084;2023-04-06T04:16:58;2.64;71.72
66144;SHT31;52947;50.842;6.084;2023-04-06T04:19:26;2.79;71.27
66144;SHT31;52947;50.842;6.084;2023-04-06T04:21:56;2.93;71.13
66144;SHT31;52947;50.842;6.084;2023-04-06T04:24:32;3.01;70.96
66144;SHT31;52947;50.842;6.084;2023-04-06T04:27:01;3.12;70.91
66144;SHT31;52947;50.842;6.084;2023-04-06T04:29:31;3.24;70.37
66144;SHT31;52947;50.842;6.084;2023-04-06T04:32:03;3.28;70.21
66144;SHT31;52947;50.842;6.084;2023-04-06T04:34:32;3.32;69.88
66144;SHT31;52947;50.842;6.084;2023-04-06T04:37:02;3.34;69.64
66144;SHT31;52947;50.842;6.084;2023-04-06T04:39:44;3.38;69.87
66144;SHT31;52947;50.842;6.084;2023-04-06T04:42:13;3.35;70.61
66144;SHT31;52947;50.842;6.084;2023-04-06T04:44:46;3.26;70.26
66144;SHT31;52947;50.842;6.084;2023-04-06T04:47:20;3.46;69.53
66144;SHT31;52947;50.842;6.084;2023-04-06T04:49:47;3.59;69.54
66144;SHT31;52947;50.842;6.084;2023-04-06T04:52:20;3.73;68.97
66144;SHT31;52947;50.842;6.084;2023-04-06T04:55:16;3.86;68.66
66144;SHT31;52947;50.842;6.084;2023-04-06T04:57:47;3.87;68.72
66144;SHT31;52947;50.842;6.084;2023-04-06T05:00:19;3.85;68.90
66144;SHT31;52947;50.842;6.084;2023-04-06T05:02:48;3.89;68.85
66144;SHT31;52947;50.842;6.084;2023-04-06T05:05:25;3.86;69.32
66144;SHT31;52947;50.842;6.084;2023-04-06T05:07:54;3.75;69.97
66144;SHT31;52947;50.842;6.084;2023-04-06T05:10:39;3.56;70.75
66144;SHT31;52947;50.842;6.084;2023-04-06T05:13:08;3.53;70.77
66144;SHT31;52947;50.842;6.084;2023-04-06T05:15:36;3.56;70.10
66144;SHT31;52947;50.842;6.084;2023-04-06T05:18:19;3.63;70.24
66144;SHT31;52947;50.842;6.084;2023-04-06T05:20:48;3.69;70.24
66144;SHT31;52947;50.842;6.084;2023-04-06T05:23:22;3.79;70.41
66144;SHT31;52947;50.842;6.084;2023-04-06T05:25:52;3.86;70.20
66144;SHT31;52947;50.842;6.084;2023-04-06T05:28:22;4.07;69.90
66144;SHT31;52947;50.842;6.084;2023-04-06T05:30:50;4.20;68.48
66144;SHT31;52947;50.842;6.084;2023-04-06T05:33:18;4.35;67.88
66144;SHT31;52947;50.842;6.084;2023-04-06T05:35:59;4.45;67.44
66144;SHT31;52947;50.842;6.084;2023-04-06T05:38:28;4.51;67.08
66144;SHT31;52947;50.842;6.084;2023-04-06T05:41:04;4.58;66.46
66144;SHT31;52947;50.842;6.084;2023-04-06T05:43:33;4.72;65.86
66144;SHT31;52947;50.842;6.084;2023-04-06T05:46:02;4.79;65.87
66144;SHT31;52947;50.842;6.084;2023-04-06T05:48:30;4.90;65.73
66144;SHT31;52947;50.842;6.084;2023-04-06T05:50:58;5.13;65.09
66144;SHT31;52947;50.842;6.084;2023-04-06T05:53:37;5.24;64.89
66144;SHT31;52947;50.842;6.084;2023-04-06T05:56:07;5.20;66.07
66144;SHT31;52947;50.842;6.084;2023-04-06T05:58:35;5.17;67.07
66144;SHT31;52947;50.842;6.084;2023-04-06T06:01:04;5.29;66.03
66144;SHT31;52947;50.842;6.084;2023-04-06T06:03:40;5.47;65.42
66144;SHT31;52947;50.842;6.084;2023-04-06T06:06:08;5.54;65.82
66144;SHT31;52947;50.842;6.084;2023-04-06T06:08:50;5.71;64.92
66144;SHT31;52947;50.842;6.084;2023-04-06T06:11:20;5.87;64.56
66144;SHT31;52947;50.842;6.084;2023-04-06T06:13:48;5.99;63.85
66144;SHT31;52947;50.842;6.084;2023-04-06T06:16:17;6.16;63.61
66144;SHT31;52947;50.842;6.084;2023-04-06T06:18:47;6.39;62.98
66144;SHT31;52947;50.842;6.084;2023-04-06T06:21:15;6.63;62.59
66144;SHT31;52947;50.842;6.084;2023-04-06T06:23:44;6.98;61.67
66144;SHT31;52947;50.842;6.084;2023-04-06T06:26:19;7.18;61.02
66144;SHT31;52947;50.842;6.084;2023-04-06T06:28:49;7.29;60.77
66144;SHT31;52947;50.842;6.084;2023-04-06T06:31:17;7.29;60.89
66144;SHT31;52947;50.842;6.084;2023-04-06T06:33:47;7.42;61.00
66144;SHT31;52947;50.842;6.084;2023-04-06T06:36:18;7.52;60.54
66144;SHT31;52947;50.842;6.084;2023-04-06T06:38:46;8.03;70.11
66144;SHT31;52947;50.842;6.084;2023-04-06T06:41:17;8.49;70.04
66144;SHT31;52947;50.842;6.084;2023-04-06T06:43:47;9.06;63.73
66144;SHT31;52947;50.842;6.084;2023-04-06T06:46:17;9.36;61.15
66144;SHT31;52947;50.842;6.084;2023-04-06T06:48:45;9.64;66.24
66144;SHT31;52947;50.842;6.084;2023-04-06T06:51:13;9.70;63.85
66144;SHT31;52947;50.842;6.084;2023-04-06T06:53:41;9.68;60.25
66144;SHT31;52947;50.842;6.084;2023-04-06T06:56:09;9.85;66.56
66144;SHT31;52947;50.842;6.084;2023-04-06T06:58:38;10.05;60.43
66144;SHT31;52947;50.842;6.084;2023-04-06T07:01:07;10.23;60.82
66144;SHT31;52947;50.842;6.084;2023-04-06T07:03:35;10.69;62.31
66144;SHT31;52947;50.842;6.084;2023-04-06T07:06:04;10.89;57.18
66144;SHT31;52947;50.842;6.084;2023-04-06T07:08:32;11.12;59.64
66144;SHT31;52947;50.842;6.084;2023-04-06T07:11:01;11.46;59.42
66144;SHT31;52947;50.842;6.084;2023-04-06T07:13:30;11.73;55.14
66144;SHT31;52947;50.842;6.084;2023-04-06T07:15:59;11.93;55.64
66144;SHT31;52947;50.842;6.084;2023-04-06T07:18:29;12.03;54.17
66144;SHT31;52947;50.842;6.084;2023-04-06T07:21:01;12.38;53.52
66144;SHT31;52947;50.842;6.084;2023-04-06T07:23:29;12.40;52.95
66144;SHT31;52947;50.842;6.084;2023-04-06T07:25:57;12.37;52.21
66144;SHT31;52947;50.842;6.084;2023-04-06T07:28:25;12.12;53.23
66144;SHT31;52947;50.842;6.084;2023-04-06T07:30:54;11.82;53.63
66144;SHT31;52947;50.842;6.084;2023-04-06T07:33:22;11.79;55.70
66144;SHT31;52947;50.842;6.084;2023-04-06T07:35:52;11.82;54.85
66144;SHT31;52947;50.842;6.084;2023-04-06T07:38:20;11.83;56.22
66144;SHT31;52947;50.842;6.084;2023-04-06T07:40:50;11.61;53.64
66144;SHT31;52947;50.842;6.084;2023-04-06T07:43:18;11.28;54.52
66144;SHT31;52947;50.842;6.084;2023-04-06T07:45:47;11.15;54.31
66144;SHT31;52947;50.842;6.084;2023-04-06T07:48:16;11.14;56.21
66144;SHT31;52947;50.842;6.084;2023-04-06T07:50:44;11.11;55.18
66144;SHT31;52947;50.842;6.084;2023-04-06T07:53:15;11.21;57.51
66144;SHT31;52947;50.842;6.084;2023-04-06T07:55:45;11.18;55.04
66144;SHT31;52947;50.842;6.084;2023-04-06T07:58:13;11.20;55.96
66144;SHT31;52947;50.842;6.084;2023-04-06T08:00:41;11.21;56.58
66144;SHT31;52947;50.842;6.084;2023-04-06T08:03:09;11.11;55.03
66144;SHT31;52947;50.842;6.084;2023-04-06T08:05:37;11.17;54.94
66144;SHT31;52947;50.842;6.084;2023-04-06T08:08:05;11.28;56.28
66144;SHT31;52947;50.842;6.084;2023-04-06T08:10:35;11.41;55.25
66144;SHT31;52947;50.842;6.084;2023-04-06T08:13:02;11.58;54.68
66144;SHT31;52947;50.842;6.084;2023-04-06T08:15:30;11.62;56.03
66144;SHT31;52947;50.842;6.084;2023-04-06T08:17:58;11.69;53.63
66144;SHT31;52947;50.842;6.084;2023-04-06T08:20:27;11.69;54.24
66144;SHT31;52947;50.842;6.084;2023-04-06T08:22:55;11.57;54.90
66144;SHT31;52947;50.842;6.084;2023-04-06T08:25:23;11.75;54.67
66144;SHT31;52947;50.842;6.084;2023-04-06T08:27:52;11.82;54.44
66144;SHT31;52947;50.842;6.084;2023-04-06T08:30:20;11.94;55.02
66144;SHT31;52947;50.842;6.084;2023-04-06T08:32:48;11.93;54.15
66144;SHT31;52947;50.842;6.084;2023-04-06T08:35:16;11.93;53.72
66144;SHT31;52947;50.842;6.084;2023-04-06T08:37:44;11.63;53.58
66144;SHT31;52947;50.842;6.084;2023-04-06T08:40:13;11.72;54.39
66144;SHT31;52947;50.842;6.084;2023-04-06T08:42:54;11.81;54.78
66144;SHT31;52947;50.842;6.084;2023-04-06T08:45:23;11.90;54.98
66144;SHT31;52947;50.842;6.084;2023-04-06T08:47:52;11.94;54.60
66144;SHT31;52947;50.842;6.084;2023-04-06T08:50:20;11.97;54.49
66144;SHT31;52947;50.842;6.084;2023-04-06T08:52:48;11.92;54.02
66144;SHT31;52947;50.842;6.084;2023-04-06T08:55:16;11.97;54.10
66144;SHT31;52947;50.842;6.084;2023-04-06T08:57:45;11.79;54.68
66144;SHT31;52947;50.842;6.084;2023-04-06T09:00:15;11.58;54.36
66144;SHT31;52947;50.842;6.084;2023-04-06T09:02:45;11.66;55.23
66144;SHT31;52947;50.842;6.084;2023-04-06T09:05:14;11.61;55.10
66144;SHT31;52947;50.842;6.084;2023-04-06T09:07:42;11.66;55.52
66144;SHT31;52947;50.842;6.084;2023-04-06T09:10:10;11.61;54.97
66144;SHT31;52947;50.842;6.084;2023-04-06T09:12:38;11.43;55.48
66144;SHT31;52947;50.842;6.084;2023-04-06T09:15:17;11.39;55.17
66144;SHT31;52947;50.842;6.084;2023-04-06T09:17:50;11.35;55.42
66144;SHT31;52947;50.842;6.084;2023-04-06T09:20:22;11.28;55.79
66144;SHT31;52947;50.842;6.084;2023-04-06T09:22:52;11.25;56.04
66144;SHT31;52947;50.842;6.084;2023-04-06T09:25:22;11.34;56.58
66144;SHT31;52947;50.842;6.084;2023-04-06T09:27:58;11.62;57.16
66144;SHT31;52947;50.842;6.084;2023-04-06T09:30:27;11.48;55.29
66144;SHT31;52947;50.842;6.084;2023-04-06T09:32:57;11.81;55.87
66144;SHT31;52947;50.842;6.084;2023-04-06T09:35:26;12.00;55.64
66144;SHT31;52947;50.842;6.084;2023-04-06T09:37:56;11.96;55.23
66144;SHT31;52947;50.842;6.084;2023-04-06T09:40:24;11.86;55.09
66144;SHT31;52947;50.842;6.084;2023-04-06T09:42:52;11.43;54.34
66144;SHT31;52947;50.842;6.084;2023-04-06T09:45:24;11.61;55.51
66144;SHT31;52947;50.842;6.084;2023-04-06T09:47:53;11.72;55.16
66144;SHT31;52947;50.842;6.084;2023-04-06T09:50:25;12.13;55.80
66144;SHT31;52947;50.842;6.084;2023-04-06T09:52:54;12.30;54.43
66144;SHT31;52947;50.842;6.084;2023-04-06T09:55:27;12.24;55.10
66144;SHT31;52947;50.842;6.084;2023-04-06T09:58:03;12.47;53.79
66144;SHT31;52947;50.842;6.084;2023-04-06T10:00:34;12.81;55.39
66144;SHT31;52947;50.842;6.084;2023-04-06T10:03:13;12.96;53.72
66144;SHT31;52947;50.842;6.084;2023-04-06T10:05:46;13.11;53.28
66144;SHT31;52947;50.842;6.084;2023-04-06T10:08:19;13.36;54.19
66144;SHT31;52947;50.842;6.084;2023-04-06T10:10:50;13.67;53.41
66144;SHT31;52947;50.842;6.084;2023-04-06T10:13:18;14.07;52.83
66144;SHT31;52947;50.842;6.084;2023-04-06T10:15:47;14.35;52.02
66144;SHT31;52947;50.842;6.084;2023-04-06T10:18:16;14.48;51.83
66144;SHT31;52947;50.842;6.084;2023-04-06T10:20:49;14.25;51.96
66144;SHT31;52947;50.842;6.084;2023-04-06T10:23:24;13.80;51.97
66144;SHT31;52947;50.842;6.084;2023-04-06T10:25:55;13.59;53.32
66144;SHT31;52947;50.842;6.084;2023-04-06T10:28:23;13.40;53.22
66144;SHT31;52947;50.842;6.084;2023-04-06T10:30:57;13.52;54.75
66144;SHT31;52947;50.842;6.084;2023-04-06T10:33:25;13.29;54.39
66144;SHT31;52947;50.842;6.084;2023-04-06T10:35:55;12.99;54.73
66144;SHT31;52947;50.842;6.084;2023-04-06T10:38:33;12.77;55.69
66144;SHT31;52947;50.842;6.084;2023-04-06T10:41:07;12.64;55.12
66144;SHT31;52947;50.842;6.084;2023-04-06T10:43:37;12.45;55.65
66144;SHT31;52947;50.842;6.084;2023-04-06T10:46:07;12.36;56.83
66144;SHT31;52947;50.842;6.084;2023-04-06T10:48:39;12.54;58.83
66144;SHT31;52947;50.842;6.084;2023-04-06T10:51:10;12.58;57.55
66144;SHT31;52947;50.842;6.084;2023-04-06T10:53:41;12.44;57.01
66144;SHT31;52947;50.842;6.084;2023-04-06T10:56:10;12.36;56.30
66144;SHT31;52947;50.842;6.084;2023-04-06T10:58:44;12.43;57.01
66144;SHT31;52947;50.842;6.084;2023-04-06T11:01:14;12.60;57.16
66144;SHT31;52947;50.842;6.084;2023-04-06T11:03:43;12.68;57.19
66144;SHT31;52947;50.842;6.084;2023-04-06T11:06:18;12.75;57.62
66144;SHT31;52947;50.842;6.084;2023-04-06T11:08:47;12.19;57.00
66144;SHT31;52947;50.842;6.084;2023-04-06T11:11:16;11.78;58.97
66144;SHT31;52947;50.842;6.084;2023-04-06T11:13:46;11.97;59.23
66144;SHT31;52947;50.842;6.084;2023-04-06T11:16:15;12.31;58.97
66144;SHT31;52947;50.842;6.084;2023-04-06T11:18:48;12.41;58.13
66144;SHT31;52947;50.842;6.084;2023-04-06T11:21:18;12.54;59.04
66144;SHT31;52947;50.842;6.084;2023-04-06T11:23:46;12.34;58.81
66144;SHT31;52947;50.842;6.084;2023-04-06T11:26:15;12.19;60.06
66144;SHT31;52947;50.842;6.084;2023-04-06T11:28:43;12.12;60.43
66144;SHT31;52947;50.842;6.084;2023-04-06T11:31:11;12.31;60.94
66144;SHT31;52947;50.842;6.084;2023-04-06T11:33:39;12.12;60.36
66144;SHT31;52947;50.842;6.084;2023-04-06T11:36:08;12.16;61.35
66144;SHT31;52947;50.842;6.084;2023-04-06T11:38:40;12.04;62.61
66144;SHT31;52947;50.842;6.084;2023-04-06T11:41:08;12.00;63.76
66144;SHT31;52947;50.842;6.084;2023-04-06T11:43:36;11.79;64.74
66144;SHT31;52947;50.842;6.084;2023-04-06T11:46:04;11.55;64.51
66144;SHT31;52947;50.842;6.084;2023-04-06T11:48:43;11.46;65.82
66144;SHT31;52947;50.842;6.084;2023-04-06T11:51:11;11.30;65.73
66144;SHT31;52947;50.842;6.084;2023-04-06T11:53:44;11.10;65.13
66144;SHT31;52947;50.842;6.084;2023-04-06T11:56:23;11.08;67.57
66144;SHT31;52947;50.842;6.084;2023-04-06T11:58:52;10.99;66.71
66144;SHT31;52947;50.842;6.084;2023-04-06T12:01:20;10.99;69.08
66144;SHT31;52947;50.842;6.084;2023-04-06T12:03:48;10.84;69.65
66144;SHT31;52947;50.842;6.084;2023-04-06T12:06:17;10.71;69.54
66144;SHT31;52947;50.842;6.084;2023-04-06T12:08:46;10.63;70.19
66144;SHT31;52947;50.842;6.084;2023-04-06T12:11:14;10.50;72.74
66144;SHT31;52947;50.842;6.084;2023-04-06T12:13:42;10.50;71.44
66144;SHT31;52947;50.842;6.084;2023-04-06T12:16:10;10.87;71.92
66144;SHT31;52947;50.842;6.084;2023-04-06T12:18:38;11.03;72.09
66144;SHT31;52947;50.842;6.084;2023-04-06T12:21:07;11.25;70.69
66144;SHT31;52947;50.842;6.084;2023-04-06T12:23:35;11.15;71.35
66144;SHT31;52947;50.842;6.084;2023-04-06T12:26:04;11.25;70.26
66144;SHT31;52947;50.842;6.084;2023-04-06T12:28:39;11.22;70.61
66144;SHT31;52947;50.842;6.084;2023-04-06T12:31:08;10.83;70.30
66144;SHT31;52947;50.842;6.084;2023-04-06T12:33:41;10.55;71.20
66144;SHT31;52947;50.842;6.084;2023-04-06T12:36:11;10.33;72.80
66144;SHT31;52947;50.842;6.084;2023-04-06T12:38:40;10.09;73.02
66144;SHT31;52947;50.842;6.084;2023-04-06T12:41:09;9.94;73.10
66144;SHT31;52947;50.842;6.084;2023-04-06T12:43:37;9.82;73.42
66144;SHT31;52947;50.842;6.084;2023-04-06T12:46:05;9.60;73.14
66144;SHT31;52947;50.842;6.084;2023-04-06T12:48:33;9.48;74.82
66144;SHT31;52947;50.842;6.084;2023-04-06T12:51:03;9.40;74.88
66144;SHT31;52947;50.842;6.084;2023-04-06T12:53:32;9.30;76.11
66144;SHT31;52947;50.842;6.084;2023-04-06T12:56:00;9.20;76.16
66144;SHT31;52947;50.842;6.084;2023-04-06T12:58:30;9.12;77.48
66144;SHT31;52947;50.842;6.084;2023-04-06T13:00:58;9.07;77.92
66144;SHT31;52947;50.842;6.084;2023-04-06T13:03:29;9.06;77.22
66144;SHT31;52947;50.842;6.084;2023-04-06T13:05:59;9.23;77.23
66144;SHT31;52947;50.842;6.084;2023-04-06T13:08:27;9.31;78.23
66144;SHT31;52947;50.842;6.084;2023-04-06T13:10:55;9.51;78.55
66144;SHT31;52947;50.842;6.084;2023-04-06T13:13:24;9.73;77.69
66144;SHT31;52947;50.842;6.084;2023-04-06T13:15:54;9.73;77.24
66144;SHT31;52947;50.842;6.084;2023-04-06T13:18:23;9.74;78.07
66144;SHT31;52947;50.842;6.084;2023-04-06T13:20:51;9.79;77.81
66144;SHT31;52947;50.842;6.084;2023-04-06T13:23:19;9.61;76.91
66144;SHT31;52947;50.842;6.084;2023-04-06T13:25:47;9.51;77.38
66144;SHT31;52947;50.842;6.084;2023-04-06T13:28:15;9.48;77.75
66144;SHT31;52947;50.842;6.084;2023-04-06T13:30:43;9.38;77.79
66144;SHT31;52947;50.842;6.084;2023-04-06T13:33:16;9.23;77.34
66144;SHT31;52947;50.842;6.084;2023-04-06T13:35:44;9.12;77.58
66144;SHT31;52947;50.842;6.084;2023-04-06T13:38:13;8.95;78.36
66144;SHT31;52947;50.842;6.084;2023-04-06T13:40:41;9.02;78.36
66144;SHT31;52947;50.842;6.084;2023-04-06T13:43:09;9.07;78.61
66144;SHT31;52947;50.842;6.084;2023-04-06T13:45:37;9.17;78.27
66144;SHT31;52947;50.842;6.084;2023-04-06T13:48:06;9.16;79.01
66144;SHT31;52947;50.842;6.084;2023-04-06T13:50:35;9.10;78.91
66144;SHT31;52947;50.842;6.084;2023-04-06T13:53:03;9.06;78.87
66144;SHT31;52947;50.842;6.084;2023-04-06T13:55:31;9.00;79.01
66144;SHT31;52947;50.842;6.084;2023-04-06T13:57:59;8.90;80.60
66144;SHT31;52947;50.842;6.084;2023-04-06T14:00:26;8.93;80.43
66144;SHT31;52947;50.842;6.084;2023-04-06T14:02:54;8.92;80.05
66144;SHT31;52947;50.842;6.084;2023-04-06T14:05:22;8.76;80.83
66144;SHT31;52947;50.842;6.084;2023-04-06T14:07:52;8.83;81.02
66144;SHT31;52947;50.842;6.084;2023-04-06T14:10:20;8.85;81.05
66144;SHT31;52947;50.842;6.084;2023-04-06T14:12:50;9.00;81.91
66144;SHT31;52947;50.842;6.084;2023-04-06T14:15:19;9.05;81.29
66144;SHT31;52947;50.842;6.084;2023-04-06T14:17:48;9.02;81.35
66144;SHT31;52947;50.842;6.084;2023-04-06T14:20:17;9.15;81.22
66144;SHT31;52947;50.842;6.084;2023-04-06T14:22:45;9.12;81.70
66144;SHT31;52947;50.842;6.084;2023-04-06T14:25:15;9.16;81.83
66144;SHT31;52947;50.842;6.084;2023-04-06T14:27:43;9.09;81.82
66144;SHT31;52947;50.842;6.084;2023-04-06T14:30:12;8.99;81.56
66144;SHT31;52947;50.842;6.084;2023-04-06T14:32:40;9.06;82.70
66144;SHT31;52947;50.842;6.084;2023-04-06T14:35:09;8.88;82.76
66144;SHT31;52947;50.842;6.084;2023-04-06T14:37:37;8.75;82.91
66144;SHT31;52947;50.842;6.084;2023-04-06T14:40:06;8.86;83.43
66144;SHT31;52947;50.842;6.084;2023-04-06T14:42:36;8.92;82.64
66144;SHT31;52947;50.842;6.084;2023-04-06T14:45:05;9.02;81.86
66144;SHT31;52947;50.842;6.084;2023-04-06T14:47:33;9.15;82.02
66144;SHT31;52947;50.842;6.084;2023-04-06T14:50:01;9.00;81.56
66144;SHT31;52947;50.842;6.084;2023-04-06T14:52:29;9.23;81.79
66144;SHT31;52947;50.842;6.084;2023-04-06T14:54:58;9.12;81.67
66144;SHT31;52947;50.842;6.084;2023-04-06T14:57:26;9.20;81.84
66144;SHT31;52947;50.842;6.084;2023-04-06T14:59:55;9.20;81.33
66144;SHT31;52947;50.842;6.084;2023-04-06T15:02:23;9.24;81.49
66144;SHT31;52947;50.842;6.084;2023-04-06T15:04:51;9.15;81.83
66144;SHT31;52947;50.842;6.084;2023-04-06T15:07:20;8.90;82.23
66144;SHT31;52947;50.842;6.084;2023-04-06T15:09:48;8.76;81.51
66144;SHT31;52947;50.842;6.084;2023-04-06T15:12:16;8.65;81.72
66144;SHT31;52947;50.842;6.084;2023-04-06T15:14:44;8.62;81.91
66144;SHT31;52947;50.842;6.084;2023-04-06T15:17:13;8.61;82.26
66144;SHT31;52947;50.842;6.084;2023-04-06T15:19:41;8.64;82.24
66144;SHT31;52947;50.842;6.084;2023-04-06T15:22:09;8.65;82.28
66144;SHT31;52947;50.842;6.084;2023-04-06T15:24:37;8.59;81.95
66144;SHT31;52947;50.842;6.084;2023-04-06T15:27:05;8.52;82.35
66144;SHT31;52947;50.842;6.084;2023-04-06T15:29:33;8.48;82.80
66144;SHT31;52947;50.842;6.084;2023-04-06T15:32:02;8.44;82.74
66144;SHT31;52947;50.842;6.084;2023-04-06T15:34:31;8.40;83.28
66144;SHT31;52947;50.842;6.084;2023-04-06T15:37:01;8.31;83.84
66144;SHT31;52947;50.842;6.084;2023-04-06T15:39:30;8.18;84.39
66144;SHT31;52947;50.842;6.084;2023-04-06T15:41:58;8.08;84.65
66144;SHT31;52947;50.842;6.084;2023-04-06T15:44:26;7.97;84.91
66144;SHT31;52947;50.842;6.084;2023-04-06T15:46:54;7.93;85.38
66144;SHT31;52947;50.842;6.084;2023-04-06T15:49:22;7.87;85.24
66144;SHT31;52947;50.842;6.084;2023-04-06T15:51:52;7.89;85.74
66144;SHT31;52947;50.842;6.084;2023-04-06T15:54:20;7.91;85.55
66144;SHT31;52947;50.842;6.084;2023-04-06T15:56:48;7.94;85.50
66144;SHT31;52947;50.842;6.084;2023-04-06T15:59:16;7.97;85.63